sensor_id;sensor_type;location;lat;lon;timestamp;pressure;altitude;pressure_sealevel;temperature;humidity
20228;BME280;12195;55.790;37.572;2022-08-14T00:02:09;100218.14;;;22.11;56.10
20228;BME280;12195;55.790;37.572;2022-08-14T00:04:41;100221.27;;;22.06;56.01
20228;BME280;12195;55.790;37.572;2022-08-14T00:07:15;100216.47;;;22.00;56.18
20228;BME280;12195;55.790;37.572;2022-08-14T00:09:47;100216.20;;;21.94;56.25
20228;BME280;12195;55.790;37.572;2022-08-14T00:12:22;100223.69;;;21.90;56.27
20228;BME280;12195;55.790;37.572;2022-08-14T00:14:55;100218.47;;;21.89;56.33
20228;BME280;12195;55.790;37.572;2022-08-14T00:17:28;100223.41;;;21.84;56.40
20228;BME280;12195;55.790;37.572;2022-08-14T00:20:03;100217.48;;;21.80;56.59
20228;BME280;12195;55.790;37.572;2022-08-14T00:22:36;100224.95;;;21.77;56.34
20228;BME280;12195;55.790;37.572;2022-08-14T00:25:10;100216.21;;;21.75;55.98
20228;BME280;12195;55.790;37.572;2022-08-14T00:27:44;100222.69;;;21.72;56.27
20228;BME280;12195;55.790;37.572;2022-08-14T00:30:18;100218.58;;;21.68;56.25
20228;BME280;12195;55.790;37.572;2022-08-14T00:32:51;100214.09;;;21.69;56.23
20228;BME280;12195;55.790;37.572;2022-08-14T00:35:25;100219.71;;;21.66;55.34
20228;BME280;12195;55.790;37.572;2022-08-14T00:38:00;100220.70;;;21.65;55.76
20228;BME280;12195;55.790;37.572;2022-08-14T00:40:34;100208.33;;;21.64;55.50
20228;BME280;12195;55.790;37.572;2022-08-14T00:43:06;100217.03;;;21.66;55.13
20228;BME280;12195;55.790;37.572;2022-08-14T00:45:39;100215.08;;;21.68;54.65
20228;BME280;12195;55.790;37.572;2022-08-14T00:48:12;100216.52;;;21.72;55.01
20228;BME280;12195;55.790;37.572;2022-08-14T00:50:47;100211.86;;;21.74;55.04
20228;BME280;12195;55.790;37.572;2022-08-14T00:53:20;100215.39;;;21.74;54.78
20228;BME280;12195;55.790;37.572;2022-08-14T00:55:54;100214.26;;;21.77;55.08
20228;BME280;12195;55.790;37.572;2022-08-14T00:58:27;100214.95;;;21.79;55.67
20228;BME280;12195;55.790;37.572;2022-08-14T01:01:05;100214.40;;;21.75;55.49
20228;BME280;12195;55.790;37.572;2022-08-14T01:03:41;100214.53;;;21.74;55.61
20228;BME280;12195;55.790;37.572;2022-08-14T01:06:15;100206.92;;;21.69;55.54
20228;BME280;12195;55.790;37.572;2022-08-14T01:08:48;100208.02;;;21.67;55.51
20228;BME280;12195;55.790;37.572;2022-08-14T01:11:22;100209.16;;;21.64;55.79
20228;BME280;12195;55.790;37.572;2022-08-14T01:13:56;100212.95;;;21.62;56.02
20228;BME280;12195;55.790;37.572;2022-08-14T01:16:32;100218.74;;;21.57;55.19
20228;BME280;12195;55.790;37.572;2022-08-14T01:19:06;100218.16;;;21.54;55.55
20228;BME280;12195;55.790;37.572;2022-08-14T01:21:56;100203.69;;;21.47;56.96
20228;BME280;12195;55.790;37.572;2022-08-14T01:24:28;100222.54;;;21.45;56.90
20228;BME280;12195;55.790;37.572;2022-08-14T01:27:03;100232.50;;;21.43;57.50
20228;BME280;12195;55.790;37.572;2022-08-14T01:29:36;100223.65;;;21.33;58.21
20228;BME280;12195;55.790;37.572;2022-08-14T01:32:11;100227.72;;;21.28;58.42
20228;BME280;12195;55.790;37.572;2022-08-14T01:34:52;100222.08;;;21.21;57.78
20228;BME280;12195;55.790;37.572;2022-08-14T01:37:26;100223.20;;;21.19;57.47
20228;BME280;12195;55.790;37.572;2022-08-14T01:40:00;100225.16;;;21.17;57.72
20228;BME280;12195;55.790;37.572;2022-08-14T01:42:33;100223.61;;;21.14;57.96
20228;BME280;12195;55.790;37.572;2022-08-14T01:45:07;100220.37;;;21.11;57.85
20228;BME280;12195;55.790;37.572;2022-08-14T01:47:45;100220.91;;;21.05;58.35
20228;BME280;12195;55.790;37.572;2022-08-14T01:50:19;100223.16;;;21.00;58.72
20228;BME280;12195;55.790;37.572;2022-08-14T01:52:53;100227.08;;;20.96;58.90
20228;BME280;12195;55.790;37.572;2022-08-14T01:55:27;100232.95;;;20.90;59.00
20228;BME280;12195;55.790;37.572;2022-08-14T01:58:02;100240.86;;;21.01;57.39
20228;BME280;12195;55.790;37.572;2022-08-14T02:00:36;100232.22;;;20.88;58.50
20228;BME280;12195;55.790;37.572;2022-08-14T02:03:09;100234.33;;;20.84;59.03
20228;BME280;12195;55.790;37.572;2022-08-14T02:05:41;100238.12;;;20.82;59.31
20228;BME280;12195;55.790;37.572;2022-08-14T02:08:15;100235.70;;;20.79;58.47
20228;BME280;12195;55.790;37.572;2022-08-14T02:10:49;100235.70;;;20.79;58.72
20228;BME280;12195;55.790;37.572;2022-08-14T02:13:25;100240.48;;;20.75;58.58
20228;BME280;12195;55.790;37.572;2022-08-14T02:15:59;100239.63;;;20.75;58.56
20228;BME280;12195;55.790;37.572;2022-08-14T02:18:32;100240.61;;;20.74;58.17
20228;BME280;12195;55.790;37.572;2022-08-14T02:21:06;100240.06;;;20.80;58.34
20228;BME280;12195;55.790;37.572;2022-08-14T02:23:39;100245.83;;;20.85;58.21
20228;BME280;12195;55.790;37.572;2022-08-14T02:26:27;100243.76;;;20.88;58.04
20228;BME280;12195;55.790;37.572;2022-08-14T02:29:04;100245.21;;;20.92;57.73
20228;BME280;12195;55.790;37.572;2022-08-14T02:31:40;100248.31;;;20.97;57.37
20228;BME280;12195;55.790;37.572;2022-08-14T02:34:22;100252.40;;;21.01;57.19
20228;BME280;12195;55.790;37.572;2022-08-14T02:37:00;100238.66;;;21.06;57.10
20228;BME280;12195;55.790;37.572;2022-08-14T02:39:37;100246.36;;;21.09;56.97
20228;BME280;12195;55.790;37.572;2022-08-14T02:42:17;100250.45;;;21.13;57.23
20228;BME280;12195;55.790;37.572;2022-08-14T02:44:44;100250.19;;;21.16;56.94
20228;BME280;12195;55.790;37.572;2022-08-14T02:47:18;100251.61;;;21.20;56.63
20228;BME280;12195;55.790;37.572;2022-08-14T02:49:52;100250.34;;;21.24;56.48
20228;BME280;12195;55.790;37.572;2022-08-14T02:52:26;100256.70;;;21.32;56.16
20228;BME280;12195;55.790;37.572;2022-08-14T02:55:00;100247.27;;;21.38;55.98
20228;BME280;12195;55.790;37.572;2022-08-14T02:57:36;100249.39;;;21.44;55.62
20228;BME280;12195;55.790;37.572;2022-08-14T03:00:10;100255.03;;;21.50;55.29
20228;BME280;12195;55.790;37.572;2022-08-14T03:02:44;100258.98;;;21.65;55.10
20228;BME280;12195;55.790;37.572;2022-08-14T03:05:18;100254.47;;;21.66;54.83
20228;BME280;12195;55.790;37.572;2022-08-14T03:07:50;100260.13;;;21.72;55.36
20228;BME280;12195;55.790;37.572;2022-08-14T03:10:25;100258.59;;;21.79;54.76
20228;BME280;12195;55.790;37.572;2022-08-14T03:12:59;100260.41;;;21.88;54.45
20228;BME280;12195;55.790;37.572;2022-08-14T03:15:33;100261.54;;;21.95;54.32
20228;BME280;12195;55.790;37.572;2022-08-14T03:18:12;100267.70;;;22.05;53.97
20228;BME280;12195;55.790;37.572;2022-08-14T03:20:46;100264.34;;;22.13;53.52
20228;BME280;12195;55.790;37.572;2022-08-14T03:23:20;100258.54;;;22.17;53.54
20228;BME280;12195;55.790;37.572;2022-08-14T03:25:52;100261.63;;;22.22;53.39
20228;BME280;12195;55.790;37.572;2022-08-14T03:28:29;100253.89;;;22.29;52.97
20228;BME280;12195;55.790;37.572;2022-08-14T03:31:02;100255.83;;;22.36;53.03
20228;BME280;12195;55.790;37.572;2022-08-14T03:33:38;100263.14;;;22.53;52.16
20228;BME280;12195;55.790;37.572;2022-08-14T03:36:12;100263.42;;;22.50;52.57
20228;BME280;12195;55.790;37.572;2022-08-14T03:38:49;100267.50;;;22.54;52.51
20228;BME280;12195;55.790;37.572;2022-08-14T03:41:26;100259.04;;;22.59;52.36
20228;BME280;12195;55.790;37.572;2022-08-14T03:44:04;100260.30;;;22.64;52.36
20228;BME280;12195;55.790;37.572;2022-08-14T03:46:38;100262.52;;;22.69;52.13
20228;BME280;12195;55.790;37.572;2022-08-14T03:49:13;100270.80;;;22.75;52.24
20228;BME280;12195;55.790;37.572;2022-08-14T03:51:48;100273.05;;;22.80;52.00
20228;BME280;12195;55.790;37.572;2022-08-14T03:54:23;100263.87;;;22.82;51.82
20228;BME280;12195;55.790;37.572;2022-08-14T03:56:56;100262.45;;;22.88;51.79
20228;BME280;12195;55.790;37.572;2022-08-14T03:59:32;100261.84;;;22.94;51.68
20228;BME280;12195;55.790;37.572;2022-08-14T04:02:05;100261.55;;;22.97;51.58
20228;BME280;12195;55.790;37.572;2022-08-14T04:04:39;100257.29;;;23.04;51.48
20228;BME280;12195;55.790;37.572;2022-08-14T04:07:12;100253.03;;;23.11;51.43
20228;BME280;12195;55.790;37.572;2022-08-14T04:09:46;100261.16;;;23.19;51.12
20228;BME280;12195;55.790;37.572;2022-08-14T04:12:19;100250.86;;;23.24;51.02
20228;BME280;12195;55.790;37.572;2022-08-14T04:14:53;100259.14;;;23.30;50.95
20228;BME280;12195;55.790;37.572;2022-08-14T04:17:25;100256.55;;;23.38;50.80
20228;BME280;12195;55.790;37.572;2022-08-14T04:20:02;100261.44;;;23.43;50.58
20228;BME280;12195;55.790;37.572;2022-08-14T04:22:38;100261.52;;;23.51;50.47
20228;BME280;12195;55.790;37.572;2022-08-14T04:25:14;100259.25;;;23.56;50.39
20228;BME280;12195;55.790;37.572;2022-08-14T04:27:46;100261.31;;;23.62;50.07
20228;BME280;12195;55.790;37.572;2022-08-14T04:30:20;100259.86;;;23.67;49.91
20228;BME280;12195;55.790;37.572;2022-08-14T04:32:54;100266.45;;;23.73;49.75
20228;BME280;12195;55.790;37.572;2022-08-14T04:35:28;100253.42;;;23.78;49.71
20228;BME280;12195;55.790;37.572;2022-08-14T04:38:09;100264.55;;;24.00;49.45
20228;BME280;12195;55.790;37.572;2022-08-14T04:41:00;100255.98;;;23.97;49.64
20228;BME280;12195;55.790;37.572;2022-08-14T04:43:51;100255.04;;;24.06;49.37
20228;BME280;12195;55.790;37.572;2022-08-14T04:46:24;100260.63;;;24.12;49.06
20228;BME280;12195;55.790;37.572;2022-08-14T04:48:59;100259.98;;;24.18;48.86
20228;BME280;12195;55.790;37.572;2022-08-14T04:51:32;100257.70;;;24.23;48.83
20228;BME280;12195;55.790;37.572;2022-08-14T04:54:05;100262.58;;;24.28;48.49
20228;BME280;12195;55.790;37.572;2022-08-14T04:56:38;100251.23;;;24.34;48.53
20228;BME280;12195;55.790;37.572;2022-08-14T04:59:12;100254.94;;;24.41;48.41
20228;BME280;12195;55.790;37.572;2022-08-14T05:01:44;100255.33;;;24.46;48.20
20228;BME280;12195;55.790;37.572;2022-08-14T05:04:20;100252.00;;;24.52;48.25
20228;BME280;12195;55.790;37.572;2022-08-14T05:06:55;100261.11;;;24.59;47.86
20228;BME280;12195;55.790;37.572;2022-08-14T05:09:28;100251.97;;;24.69;47.87
20228;BME280;12195;55.790;37.572;2022-08-14T05:12:00;100253.02;;;24.76;47.60
20228;BME280;12195;55.790;37.572;2022-08-14T05:14:34;100251.20;;;24.85;47.45
20228;BME280;12195;55.790;37.572;2022-08-14T05:17:11;100250.37;;;24.92;47.15
20228;BME280;12195;55.790;37.572;2022-08-14T05:19:44;100250.26;;;25.02;47.01
20228;BME280;12195;55.790;37.572;2022-08-14T05:22:18;100253.99;;;25.09;46.31
20228;BME280;12195;55.790;37.572;2022-08-14T05:24:52;100244.12;;;25.18;46.09
20228;BME280;12195;55.790;37.572;2022-08-14T05:27:24;100254.13;;;25.41;46.13
20228;BME280;12195;55.790;37.572;2022-08-14T05:29:58;100245.72;;;25.36;45.19
20228;BME280;12195;55.790;37.572;2022-08-14T05:32:32;100245.04;;;25.42;45.08
20228;BME280;12195;55.790;37.572;2022-08-14T05:35:06;100239.84;;;25.49;44.75
20228;BME280;12195;55.790;37.572;2022-08-14T05:37:40;100244.91;;;25.60;44.57
20228;BME280;12195;55.790;37.572;2022-08-14T05:40:14;100242.23;;;25.68;44.50
20228;BME280;12195;55.790;37.572;2022-08-14T05:42:47;100234.01;;;25.77;43.67
20228;BME280;12195;55.790;37.572;2022-08-14T05:45:21;100235.00;;;25.84;43.35
20228;BME280;12195;55.790;37.572;2022-08-14T05:47:54;100242.78;;;25.95;43.04
20228;BME280;12195;55.790;37.572;2022-08-14T05:50:27;100239.23;;;26.03;42.93
20228;BME280;12195;55.790;37.572;2022-08-14T05:53:00;100240.41;;;26.08;42.93
20228;BME280;12195;55.790;37.572;2022-08-14T05:55:32;100245.95;;;26.15;42.48
20228;BME280;12195;55.790;37.572;2022-08-14T05:58:07;100240.89;;;26.20;42.63
20228;BME280;12195;55.790;37.572;2022-08-14T06:00:41;100232.81;;;26.28;42.83
20228;BME280;12195;55.790;37.572;2022-08-14T06:03:14;100233.81;;;26.35;42.20
20228;BME280;12195;55.790;37.572;2022-08-14T06:05:52;100250.10;;;26.57;42.76
20228;BME280;12195;55.790;37.572;2022-08-14T06:08:31;100232.59;;;26.53;41.91
20228;BME280;12195;55.790;37.572;2022-08-14T06:11:07;100233.29;;;26.63;41.73
20228;BME280;12195;55.790;37.572;2022-08-14T06:13:43;100234.91;;;26.80;41.39
20228;BME280;12195;55.790;37.572;2022-08-14T06:16:16;100224.63;;;27.22;40.33
20228;BME280;12195;55.790;37.572;2022-08-14T06:18:48;100225.04;;;27.87;39.06
20228;BME280;12195;55.790;37.572;2022-08-14T06:21:23;100228.75;;;28.74;37.56
20228;BME280;12195;55.790;37.572;2022-08-14T06:23:55;100220.50;;;29.62;35.81
20228;BME280;12195;55.790;37.572;2022-08-14T06:26:29;100225.81;;;30.39;34.21
20228;BME280;12195;55.790;37.572;2022-08-14T06:29:02;100221.25;;;31.21;32.75
20228;BME280;12195;55.790;37.572;2022-08-14T06:31:35;100216.65;;;31.81;31.81
20228;BME280;12195;55.790;37.572;2022-08-14T06:34:07;100218.53;;;32.59;30.67
20228;BME280;12195;55.790;37.572;2022-08-14T06:36:43;100214.98;;;33.22;29.74
20228;BME280;12195;55.790;37.572;2022-08-14T06:39:16;100215.98;;;33.72;28.76
20228;BME280;12195;55.790;37.572;2022-08-14T06:41:50;100212.76;;;33.88;28.13
20228;BME280;12195;55.790;37.572;2022-08-14T06:44:24;100214.66;;;33.81;28.24
20228;BME280;12195;55.790;37.572;2022-08-14T06:46:58;100216.84;;;33.66;28.44
20228;BME280;12195;55.790;37.572;2022-08-14T06:49:30;100224.13;;;33.41;28.88
20228;BME280;12195;55.790;37.572;2022-08-14T06:52:04;100220.55;;;32.96;29.31
20228;BME280;12195;55.790;37.572;2022-08-14T06:54:38;100222.84;;;32.99;29.24
20228;BME280;12195;55.790;37.572;2022-08-14T06:57:11;100220.06;;;33.12;29.12
20228;BME280;12195;55.790;37.572;2022-08-14T06:59:44;100217.83;;;32.96;29.09
20228;BME280;12195;55.790;37.572;2022-08-14T07:02:16;100226.47;;;32.67;29.56
20228;BME280;12195;55.790;37.572;2022-08-14T07:05:06;100216.47;;;32.15;30.30
20228;BME280;12195;55.790;37.572;2022-08-14T07:07:56;100225.59;;;31.56;31.20
20228;BME280;12195;55.790;37.572;2022-08-14T07:10:28;100222.00;;;31.02;31.94
20228;BME280;12195;55.790;37.572;2022-08-14T07:13:01;100225.94;;;30.59;32.31
20228;BME280;12195;55.790;37.572;2022-08-14T07:15:34;100223.01;;;30.26;32.93
20228;BME280;12195;55.790;37.572;2022-08-14T07:18:09;100216.28;;;30.01;32.71
20228;BME280;12195;55.790;37.572;2022-08-14T07:20:42;100219.86;;;29.81;33.72
20228;BME280;12195;55.790;37.572;2022-08-14T07:23:14;100215.55;;;29.65;33.83
20228;BME280;12195;55.790;37.572;2022-08-14T07:25:50;100216.02;;;29.54;33.83
20228;BME280;12195;55.790;37.572;2022-08-14T07:28:29;100217.38;;;29.44;33.09
20228;BME280;12195;55.790;37.572;2022-08-14T07:31:05;100220.83;;;29.38;33.36
20228;BME280;12195;55.790;37.572;2022-08-14T07:33:45;100214.52;;;29.31;33.81
20228;BME280;12195;55.790;37.572;2022-08-14T07:36:17;100218.16;;;29.23;32.75
20228;BME280;12195;55.790;37.572;2022-08-14T07:38:52;100215.86;;;29.20;33.24
20228;BME280;12195;55.790;37.572;2022-08-14T07:41:26;100215.56;;;29.15;33.23
20228;BME280;12195;55.790;37.572;2022-08-14T07:44:02;100214.16;;;29.19;32.96
20228;BME280;12195;55.790;37.572;2022-08-14T07:46:36;100187.36;;;29.03;32.51
20228;BME280;12195;55.790;37.572;2022-08-14T07:49:11;100187.36;;;29.03;32.51
20228;BME280;12195;55.790;37.572;2022-08-14T07:51:45;100216.42;;;29.15;32.10
20228;BME280;12195;55.790;37.572;2022-08-14T07:54:20;100209.78;;;29.18;31.85
20228;BME280;12195;55.790;37.572;2022-08-14T07:56:54;100212.30;;;29.19;32.33
20228;BME280;12195;55.790;37.572;2022-08-14T07:59:29;100210.89;;;29.23;32.17
20228;BME280;12195;55.790;37.572;2022-08-14T08:02:04;100218.64;;;29.27;32.59
20228;BME280;12195;55.790;37.572;2022-08-14T08:04:48;100217.98;;;29.24;32.77
20228;BME280;12195;55.790;37.572;2022-08-14T08:07:18;100217.60;;;29.28;32.54
20228;BME280;12195;55.790;37.572;2022-08-14T08:09:54;100212.75;;;29.23;32.63
20228;BME280;12195;55.790;37.572;2022-08-14T08:12:28;100212.97;;;29.22;32.93
20228;BME280;12195;55.790;37.572;2022-08-14T08:15:02;100217.16;;;29.24;32.96
20228;BME280;12195;55.790;37.572;2022-08-14T08:17:36;100213.05;;;29.28;34.20
20228;BME280;12195;55.790;37.572;2022-08-14T08:20:18;100218.12;;;29.38;33.67
20228;BME280;12195;55.790;37.572;2022-08-14T08:22:52;100224.89;;;29.48;31.88
20228;BME280;12195;55.790;37.572;2022-08-14T08:25:33;100223.70;;;29.51;32.67
20228;BME280;12195;55.790;37.572;2022-08-14T08:28:13;100227.23;;;29.51;32.30
20228;BME280;12195;55.790;37.572;2022-08-14T08:33:27;100213.48;;;29.67;31.53
20228;BME280;12195;55.790;37.572;2022-08-14T08:36:04;100208.97;;;29.74;31.27
20228;BME280;12195;55.790;37.572;2022-08-14T08:38:37;100211.92;;;29.79;31.91
20228;BME280;12195;55.790;37.572;2022-08-14T08:41:11;100204.95;;;29.91;31.42
20228;BME280;12195;55.790;37.572;2022-08-14T08:43:44;100215.21;;;30.17;31.24
20228;BME280;12195;55.790;37.572;2022-08-14T08:46:20;100213.43;;;30.09;31.02
20228;BME280;12195;55.790;37.572;2022-08-14T08:48:55;100212.89;;;30.14;31.21
20228;BME280;12195;55.790;37.572;2022-08-14T08:51:29;100207.75;;;30.25;31.00
20228;BME280;12195;55.790;37.572;2022-08-14T08:54:12;100199.52;;;30.40;30.76
20228;BME280;12195;55.790;37.572;2022-08-14T08:56:48;100203.77;;;30.49;29.92
20228;BME280;12195;55.790;37.572;2022-08-14T08:59:26;100203.77;;;30.49;29.91
20228;BME280;12195;55.790;37.572;2022-08-14T09:02:10;100200.83;;;30.50;29.59
20228;BME280;12195;55.790;37.572;2022-08-14T09:04:42;100200.05;;;30.56;29.63
20228;BME280;12195;55.790;37.572;2022-08-14T09:07:16;100201.52;;;30.59;29.02
20228;BME280;12195;55.790;37.572;2022-08-14T09:09:52;100197.56;;;30.61;29.48
20228;BME280;12195;55.790;37.572;2022-08-14T09:12:29;100199.86;;;30.58;29.46
20228;BME280;12195;55.790;37.572;2022-08-14T09:15:05;100194.23;;;30.59;29.64
20228;BME280;12195;55.790;37.572;2022-08-14T09:17:42;100194.07;;;30.67;29.77
20228;BME280;12195;55.790;37.572;2022-08-14T09:20:16;100197.05;;;30.72;29.48
20228;BME280;12195;55.790;37.572;2022-08-14T09:22:50;100198.34;;;30.83;29.42
20228;BME280;12195;55.790;37.572;2022-08-14T09:25:25;100195.66;;;30.89;29.20
20228;BME280;12195;55.790;37.572;2022-08-14T09:27:59;100194.64;;;30.97;29.20
20228;BME280;12195;55.790;37.572;2022-08-14T09:30:35;100193.00;;;31.02;29.27
20228;BME280;12195;55.790;37.572;2022-08-14T09:33:28;100185.09;;;31.14;28.96
20228;BME280;12195;55.790;37.572;2022-08-14T09:45:12;100183.65;;;31.18;29.14
20228;BME280;12195;55.790;37.572;2022-08-14T09:47:20;100178.31;;;31.31;28.99
20228;BME280;12195;55.790;37.572;2022-08-14T09:49:53;100177.51;;;31.56;28.34
20228;BME280;12195;55.790;37.572;2022-08-14T09:52:25;100171.91;;;31.77;28.04
20228;BME280;12195;55.790;37.572;2022-08-14T09:54:59;100172.15;;;31.89;27.80
20228;BME280;12195;55.790;37.572;2022-08-14T09:57:32;100177.38;;;31.97;27.69
20228;BME280;12195;55.790;37.572;2022-08-14T10:00:13;100174.66;;;32.03;27.39
20228;BME280;12195;55.790;37.572;2022-08-14T10:02:53;100175.91;;;32.07;27.33
20228;BME280;12195;55.790;37.572;2022-08-14T10:05:30;100170.25;;;32.15;27.36
20228;BME280;12195;55.790;37.572;2022-08-14T10:08:04;100170.03;;;32.23;27.27
20228;BME280;12195;55.790;37.572;2022-08-14T10:10:40;100162.92;;;32.42;27.26
20228;BME280;12195;55.790;37.572;2022-08-14T10:13:24;100165.78;;;32.60;27.67
20228;BME280;12195;55.790;37.572;2022-08-14T10:15:59;100163.20;;;32.78;26.74
20228;BME280;12195;55.790;37.572;2022-08-14T10:18:32;100163.63;;;32.88;26.65
20228;BME280;12195;55.790;37.572;2022-08-14T10:21:06;100160.27;;;32.86;26.61
20228;BME280;12195;55.790;37.572;2022-08-14T10:23:42;100159.84;;;32.89;26.58
20228;BME280;12195;55.790;37.572;2022-08-14T10:26:19;100162.25;;;33.10;26.11
20228;BME280;12195;55.790;37.572;2022-08-14T10:28:53;100172.03;;;33.24;25.29
20228;BME280;12195;55.790;37.572;2022-08-14T10:31:28;100170.06;;;33.44;25.30
20228;BME280;12195;55.790;37.572;2022-08-14T10:34:17;100172.11;;;33.49;25.15
20228;BME280;12195;55.790;37.572;2022-08-14T10:36:44;100174.23;;;33.47;25.27
20228;BME280;12195;55.790;37.572;2022-08-14T10:39:22;100167.09;;;33.46;25.25
20228;BME280;12195;55.790;37.572;2022-08-14T10:42:04;100169.81;;;33.46;25.27
20228;BME280;12195;55.790;37.572;2022-08-14T10:44:40;100157.38;;;33.56;25.52
20228;BME280;12195;55.790;37.572;2022-08-14T10:47:16;100156.84;;;33.72;25.10
20228;BME280;12195;55.790;37.572;2022-08-14T10:49:58;100160.05;;;33.94;24.98
20228;BME280;12195;55.790;37.572;2022-08-14T10:52:33;100167.30;;;34.06;24.73
20228;BME280;12195;55.790;37.572;2022-08-14T10:55:20;100158.14;;;34.19;24.53
20228;BME280;12195;55.790;37.572;2022-08-14T10:57:50;100151.80;;;34.25;24.52
20228;BME280;12195;55.790;37.572;2022-08-14T11:00:24;100157.03;;;34.26;24.06
20228;BME280;12195;55.790;37.572;2022-08-14T11:03:05;100152.45;;;34.20;23.63
20228;BME280;12195;55.790;37.572;2022-08-14T11:05:46;100162.77;;;34.18;24.03
20228;BME280;12195;55.790;37.572;2022-08-14T11:08:31;100156.19;;;34.26;24.29
20228;BME280;12195;55.790;37.572;2022-08-14T11:11:04;100149.95;;;34.19;24.36
20228;BME280;12195;55.790;37.572;2022-08-14T11:13:40;100154.81;;;34.17;24.89
20228;BME280;12195;55.790;37.572;2022-08-14T11:16:16;100148.20;;;34.06;24.53
20228;BME280;12195;55.790;37.572;2022-08-14T11:18:50;100156.95;;;33.90;24.79
20228;BME280;12195;55.790;37.572;2022-08-14T11:21:24;100153.00;;;33.86;24.78
20228;BME280;12195;55.790;37.572;2022-08-14T11:23:59;100150.30;;;33.80;24.86
20228;BME280;12195;55.790;37.572;2022-08-14T11:26:35;100153.53;;;33.95;24.75
20228;BME280;12195;55.790;37.572;2022-08-14T11:29:11;100149.88;;;34.25;24.25
20228;BME280;12195;55.790;37.572;2022-08-14T11:31:44;100156.02;;;34.63;23.89
20228;BME280;12195;55.790;37.572;2022-08-14T11:34:18;100143.41;;;34.98;23.82
20228;BME280;12195;55.790;37.572;2022-08-14T11:36:52;100147.80;;;34.99;23.44
20228;BME280;12195;55.790;37.572;2022-08-14T11:39:27;100142.51;;;35.04;23.25
20228;BME280;12195;55.790;37.572;2022-08-14T11:42:01;100139.02;;;34.97;23.56
20228;BME280;12195;55.790;37.572;2022-08-14T11:44:35;100142.92;;;34.90;23.61
20228;BME280;12195;55.790;37.572;2022-08-14T11:47:11;100145.92;;;34.64;23.82
20228;BME280;12195;55.790;37.572;2022-08-14T11:49:48;100144.02;;;34.46;23.71
20228;BME280;12195;55.790;37.572;2022-08-14T11:52:22;100147.97;;;34.32;23.88
20228;BME280;12195;55.790;37.572;2022-08-14T11:54:57;100141.14;;;34.41;24.40
20228;BME280;12195;55.790;37.572;2022-08-14T11:57:30;100142.68;;;34.55;24.38
20228;BME280;12195;55.790;37.572;2022-08-14T12:00:04;100135.27;;;34.80;24.00
20228;BME280;12195;55.790;37.572;2022-08-14T12:02:56;100129.53;;;35.00;24.08
20228;BME280;12195;55.790;37.572;2022-08-14T12:05:34;100137.31;;;35.14;24.14
20228;BME280;12195;55.790;37.572;2022-08-14T12:08:09;100135.03;;;35.29;23.75
20228;BME280;12195;55.790;37.572;2022-08-14T12:10:43;100130.56;;;35.46;23.53
20228;BME280;12195;55.790;37.572;2022-08-14T12:13:18;100126.61;;;35.83;23.04
20228;BME280;12195;55.790;37.572;2022-08-14T12:16:04;100126.61;;;35.95;22.87
20228;BME280;12195;55.790;37.572;2022-08-14T12:18:41;100125.92;;;36.34;22.53
20228;BME280;12195;55.790;37.572;2022-08-14T12:21:20;100126.77;;;37.25;21.87
20228;BME280;12195;55.790;37.572;2022-08-14T12:24:06;100112.88;;;37.76;21.28
20228;BME280;12195;55.790;37.572;2022-08-14T12:26:41;100118.11;;;38.11;20.66
20228;BME280;12195;55.790;37.572;2022-08-14T12:29:14;100108.64;;;38.18;20.38
20228;BME280;12195;55.790;37.572;2022-08-14T12:31:56;100113.71;;;38.10;20.33
20228;BME280;12195;55.790;37.572;2022-08-14T12:34:29;100112.63;;;37.78;20.52
20228;BME280;12195;55.790;37.572;2022-08-14T12:37:06;100107.58;;;37.25;20.89
20228;BME280;12195;55.790;37.572;2022-08-14T12:39:40;100107.08;;;37.00;21.04
20228;BME280;12195;55.790;37.572;2022-08-14T12:42:13;100105.20;;;36.89;21.24
20228;BME280;12195;55.790;37.572;2022-08-14T12:44:48;100100.64;;;37.51;20.62
20228;BME280;12195;55.790;37.572;2022-08-14T12:47:25;100099.80;;;38.54;19.94
20228;BME280;12195;55.790;37.572;2022-08-14T12:49:57;100103.08;;;39.21;18.98
20228;BME280;12195;55.790;37.572;2022-08-14T12:52:33;100104.41;;;39.40;18.56
20228;BME280;12195;55.790;37.572;2022-08-14T12:55:10;100102.38;;;39.93;18.14
20228;BME280;12195;55.790;37.572;2022-08-14T12:57:44;100108.69;;;39.89;17.96
20228;BME280;12195;55.790;37.572;2022-08-14T13:00:21;100108.69;;;39.57;18.21
20228;BME280;12195;55.790;37.572;2022-08-14T13:02:54;100098.97;;;38.97;18.86
20228;BME280;12195;55.790;37.572;2022-08-14T13:05:29;100097.39;;;38.58;19.82
20228;BME280;12195;55.790;37.572;2022-08-14T13:08:05;100095.45;;;39.01;19.56
20228;BME280;12195;55.790;37.572;2022-08-14T13:10:39;100096.66;;;39.37;19.12
20228;BME280;12195;55.790;37.572;2022-08-14T13:13:17;100097.48;;;39.11;19.44
20228;BME280;12195;55.790;37.572;2022-08-14T13:15:53;100102.83;;;38.53;19.97
20228;BME280;12195;55.790;37.572;2022-08-14T13:18:28;100101.65;;;37.78;20.76
20228;BME280;12195;55.790;37.572;2022-08-14T13:21:02;100093.29;;;36.95;21.43
20228;BME280;12195;55.790;37.572;2022-08-14T13:23:36;100098.08;;;36.25;22.53
20228;BME280;12195;55.790;37.572;2022-08-14T13:26:12;100101.70;;;35.62;22.96
20228;BME280;12195;55.790;37.572;2022-08-14T13:28:46;100098.44;;;35.30;23.22
20228;BME280;12195;55.790;37.572;2022-08-14T13:31:23;100109.30;;;34.89;23.87
20228;BME280;12195;55.790;37.572;2022-08-14T13:33:59;100100.36;;;34.46;24.53